Time;durP1;ratioP1;P1;durP2;ratioP2;P2;SDS_P1;SDS_P2;PMS_P1;PMS_P2;Temp;Humidity;BMP_temperature;BMP_pressure;BME280_temperature;BME280_humidity;BME280_pressure;Samples;Min_cycle;Max_cycle;Signal;HPM_P1;HPM_P2
2021/10/26 00:01:21;;;;;;;10.43;5.57;;;10.50;99.90;;;;;;5090762;28;20039;-44
2021/10/26 00:03:47;;;;;;;8.25;5.57;;;10.50;99.90;;;;;;5090847;28;20028;-44
2021/10/26 00:06:13;;;;;;;8.50;5.20;;;10.50;99.90;;;;;;5091081;28;20565;-43
2021/10/26 00:08:38;;;;;;;11.15;5.72;;;10.50;99.90;;;;;;5081801;28;20050;-44
2021/10/26 00:11:05;;;;;;;8.65;5.45;;;10.50;99.90;;;;;;5083193;28;20182;-44
2021/10/26 00:13:30;;;;;;;13.93;5.95;;;10.50;99.90;;;;;;5090352;28;20070;-43
2021/10/26 00:15:56;;;;;;;8.18;5.85;;;10.60;99.90;;;;;;5090389;28;20477;-45
2021/10/26 00:18:21;;;;;;;11.55;6.82;;;10.60;99.90;;;;;;5089995;28;20074;-44
2021/10/26 00:20:47;;;;;;;8.02;5.85;;;10.60;99.90;;;;;;5090520;28;20040;-44
2021/10/26 00:23:12;;;;;;;12.52;6.53;;;10.60;99.90;;;;;;5090550;28;20028;-44
2021/10/26 00:25:39;;;;;;;11.70;6.47;;;10.60;99.90;;;;;;5090046;28;20366;-44
2021/10/26 00:28:05;;;;;;;8.27;5.90;;;10.70;99.90;;;;;;5088331;28;20081;-44
2021/10/26 00:30:30;;;;;;;14.20;6.20;;;10.70;99.90;;;;;;5090450;28;20182;-44
2021/10/26 00:32:56;;;;;;;10.65;6.45;;;10.70;99.90;;;;;;5087084;28;20016;-44
2021/10/26 00:35:27;;;;;;;11.20;6.38;;;10.70;99.90;;;;;;5081727;28;20090;-43
2021/10/26 00:37:53;;;;;;;;;;;10.70;99.90;;;;;;5087006;28;20116;-45
2021/10/26 00:40:18;;;;;;;13.18;6.55;;;10.80;99.90;;;;;;5072653;28;20417;-44
2021/10/26 00:42:43;;;;;;;12.68;6.50;;;10.80;99.90;;;;;;5088117;28;20111;-44
2021/10/26 00:45:09;;;;;;;8.07;6.18;;;10.80;99.90;;;;;;5082558;28;20028;-44
2021/10/26 00:47:35;;;;;;;8.55;5.82;;;10.80;99.90;;;;;;5077158;28;20027;-45
2021/10/26 00:50:00;;;;;;;14.18;7.55;;;10.80;99.90;;;;;;5069398;28;20040;-44
2021/10/26 00:52:26;;;;;;;10.13;6.28;;;10.80;99.90;;;;;;5069367;28;20024;-44
2021/10/26 00:54:52;;;;;;;12.43;6.88;;;10.70;99.90;;;;;;5069405;28;20020;-44
2021/10/26 00:57:22;;;;;;;11.35;6.75;;;10.70;99.90;;;;;;5068691;28;20071;-44
2021/10/26 00:59:47;;;;;;;14.17;6.70;;;10.60;99.90;;;;;;5069054;28;20034;-45
2021/10/26 01:02:13;;;;;;;10.57;7.00;;;10.60;99.90;;;;;;5069454;28;20255;-44
2021/10/26 01:04:38;;;;;;;11.30;6.55;;;10.70;99.90;;;;;;5067284;28;20029;-44
2021/10/26 01:07:04;;;;;;;10.60;6.97;;;10.80;99.90;;;;;;5068273;28;20039;-44
2021/10/26 01:09:30;;;;;;;14.05;7.75;;;10.70;99.90;;;;;;5085798;28;20036;-44
2021/10/26 01:11:56;;;;;;;12.50;7.32;;;10.70;99.90;;;;;;5089298;28;20413;-44
2021/10/26 01:14:22;;;;;;;10.40;7.18;;;10.70;99.90;;;;;;5089619;28;20028;-44
2021/10/26 01:16:47;;;;;;;10.85;6.70;;;10.70;99.90;;;;;;5089635;28;20042;-44
2021/10/26 01:19:13;;;;;;;10.25;6.97;;;10.70;99.90;;;;;;5089197;28;20032;-45
2021/10/26 01:21:38;;;;;;;8.80;6.35;;;10.70;99.90;;;;;;5089299;28;20066;-43
2021/10/26 01:24:04;;;;;;;10.95;7.13;;;10.70;99.90;;;;;;5089169;28;20032;-44
2021/10/26 01:26:32;;;;;;;11.73;6.70;;;10.70;99.90;;;;;;5089725;28;20032;-45
2021/10/26 01:28:58;;;;;;;11.60;7.47;;;10.70;99.90;;;;;;5088735;28;20017;-44
2021/10/26 01:31:24;;;;;;;12.02;7.70;;;10.70;99.90;;;;;;5089077;28;20032;-43
2021/10/26 01:33:49;;;;;;;11.15;7.47;;;10.70;99.90;;;;;;5087854;28;20063;-44
2021/10/26 01:36:17;;;;;;;10.60;7.28;;;10.70;99.90;;;;;;5072650;28;20156;-46
2021/10/26 01:38:42;;;;;;;11.00;7.72;;;10.60;99.90;;;;;;5063862;28;20474;-43
2021/10/26 01:41:08;;;;;;;12.32;7.05;;;10.60;99.90;;;;;;5080137;28;20047;-45
2021/10/26 01:43:33;;;;;;;11.35;7.43;;;10.70;99.90;;;;;;5087657;28;20030;-44
2021/10/26 01:45:59;;;;;;;18.00;8.75;;;10.70;99.90;;;;;;5089062;28;20032;-45
2021/10/26 01:48:26;;;;;;;14.40;9.13;;;10.70;99.90;;;;;;5088395;28;20501;-47
2021/10/26 01:50:52;;;;;;;13.30;9.35;;;10.80;99.90;;;;;;5085903;28;20020;-44
2021/10/26 01:53:18;;;;;;;14.60;8.82;;;10.80;99.90;;;;;;5080254;28;20047;-44
2021/10/26 01:55:44;;;;;;;12.88;8.43;;;10.80;99.90;;;;;;5088600;28;20264;-44
2021/10/26 01:58:09;;;;;;;13.05;8.73;;;10.90;99.90;;;;;;5088328;28;20028;-44
2021/10/26 02:00:35;;;;;;;11.90;9.07;;;10.90;99.90;;;;;;5086973;28;20412;-45
2021/10/26 02:03:01;;;;;;;13.27;8.75;;;10.90;99.90;;;;;;5069308;28;20024;-45
2021/10/26 02:05:26;;;;;;;13.30;9.73;;;10.90;99.90;;;;;;5078612;28;20020;-45
2021/10/26 02:07:52;;;;;;;15.23;9.43;;;10.80;99.90;;;;;;5087764;28;20032;-46
2021/10/26 02:10:20;;;;;;;13.60;9.55;;;10.80;99.90;;;;;;5083902;28;20028;-45
2021/10/26 02:12:45;;;;;;;16.05;9.82;;;10.90;99.90;;;;;;5080126;28;20016;-46
2021/10/26 02:15:11;;;;;;;16.70;10.55;;;10.90;99.90;;;;;;5088115;28;20016;-44
2021/10/26 02:17:36;;;;;;;21.33;11.20;;;10.90;99.90;;;;;;5086565;28;20024;-45
2021/10/26 02:20:03;;;;;;;16.95;10.40;;;10.90;99.90;;;;;;5087185;28;20481;-44
2021/10/26 02:22:29;;;;;;;16.00;10.30;;;10.90;99.90;;;;;;5086099;28;20032;-44
2021/10/26 02:24:54;;;;;;;13.05;9.55;;;10.90;99.90;;;;;;5087507;28;20055;-44
2021/10/26 02:27:20;;;;;;;19.77;10.75;;;10.90;99.90;;;;;;5074977;28;20036;-43
2021/10/26 02:29:45;;;;;;;14.50;10.13;;;10.90;99.90;;;;;;5078681;28;20253;-44
2021/10/26 02:32:11;;;;;;;18.17;10.07;;;10.90;99.90;;;;;;5088179;28;20028;-43
2021/10/26 02:34:37;;;;;;;16.70;11.15;;;10.90;99.90;;;;;;5077307;28;20058;-44
2021/10/26 02:37:02;;;;;;;15.95;10.85;;;10.90;99.90;;;;;;5087514;28;20493;-43
2021/10/26 02:39:28;;;;;;;18.92;12.63;;;10.90;99.90;;;;;;5072621;28;20485;-44
2021/10/26 02:41:54;;;;;;;18.17;13.07;;;10.90;99.90;;;;;;5079326;28;20509;-43
2021/10/26 02:44:19;;;;;;;22.58;12.75;;;10.90;99.90;;;;;;5087922;28;20016;-45
2021/10/26 02:46:45;;;;;;;23.17;14.50;;;10.90;99.90;;;;;;5087702;28;20263;-44
2021/10/26 02:49:10;;;;;;;22.23;13.68;;;11.00;99.90;;;;;;5086486;28;20031;-44
2021/10/26 02:51:36;;;;;;;24.98;15.02;;;11.00;99.90;;;;;;5087640;28;20108;-45
2021/10/26 02:54:03;;;;;;;22.27;14.20;;;11.00;99.90;;;;;;5086711;28;20024;-44
2021/10/26 02:56:28;;;;;;;22.73;15.00;;;11.10;99.90;;;;;;5087571;28;20016;-44
2021/10/26 02:58:54;;;;;;;26.27;15.23;;;11.10;99.90;;;;;;5066468;28;20367;-44
2021/10/26 03:01:20;;;;;;;21.17;14.02;;;11.10;99.90;;;;;;5082308;28;20024;-44
2021/10/26 03:03:45;;;;;;;22.60;14.48;;;11.20;99.90;;;;;;5087304;28;20043;-44
2021/10/26 03:06:12;;;;;;;26.80;15.52;;;11.20;99.90;;;;;;5070028;28;20493;-44
2021/10/26 03:08:38;;;;;;;23.38;14.98;;;11.20;99.90;;;;;;5078089;28;20485;-44
2021/10/26 03:11:03;;;;;;;24.23;14.00;;;11.20;99.90;;;;;;5085485;28;20068;-44
2021/10/26 03:13:29;;;;;;;24.38;14.88;;;11.20;99.90;;;;;;5075238;28;20032;-44
2021/10/26 03:15:54;;;;;;;23.83;14.05;;;11.20;99.90;;;;;;5087688;28;20166;-45
2021/10/26 03:18:20;;;;;;;21.73;15.02;;;11.30;99.90;;;;;;5086492;28;20371;-45
2021/10/26 03:20:45;;;;;;;23.95;15.07;;;11.30;99.90;;;;;;5086244;28;20020;-44
2021/10/26 03:23:11;;;;;;;21.67;14.70;;;11.20;99.90;;;;;;5072900;28;20067;-44
2021/10/26 03:25:37;;;;;;;23.98;14.48;;;11.30;99.90;;;;;;5058347;28;20025;-45
2021/10/26 03:28:02;;;;;;;23.15;14.23;;;11.30;99.90;;;;;;5058537;28;20081;-45
2021/10/26 03:30:28;;;;;;;21.20;13.80;;;11.30;99.90;;;;;;5082559;28;20081;-45
2021/10/26 03:32:53;;;;;;;19.20;13.63;;;11.20;99.90;;;;;;5081594;28;20031;-44
2021/10/26 03:35:19;;;;;;;20.20;13.52;;;11.20;99.90;;;;;;5080196;28;20082;-45
2021/10/26 03:37:45;;;;;;;19.52;13.57;;;11.20;99.90;;;;;;5060897;28;20024;-46
2021/10/26 03:40:12;;;;;;;20.83;13.75;;;11.20;99.90;;;;;;5062792;28;20472;-45
2021/10/26 03:42:38;;;;;;;25.65;13.98;;;11.20;99.90;;;;;;5070678;28;20024;-45
2021/10/26 03:45:05;;;;;;;20.98;13.43;;;11.20;99.90;;;;;;5070249;28;20207;-44
2021/10/26 03:47:31;;;;;;;20.02;13.73;;;11.20;99.90;;;;;;5069139;28;20025;-44
2021/10/26 03:49:56;;;;;;;24.42;14.82;;;11.10;99.90;;;;;;5070921;28;20035;-43
2021/10/26 03:52:22;;;;;;;20.33;13.68;;;11.20;99.90;;;;;;5070922;28;20457;-43
2021/10/26 03:54:49;;;;;;;24.60;14.48;;;11.10;99.90;;;;;;5070545;28;20056;-44
2021/10/26 03:57:15;;;;;;;19.90;13.98;;;11.10;99.90;;;;;;5069796;28;20013;-44
2021/10/26 03:59:41;;;;;;;22.05;14.68;;;11.10;99.90;;;;;;5065740;28;20044;-43
2021/10/26 04:02:12;;;;;;;23.70;14.55;;;11.10;99.90;;;;;;5050752;28;20021;-44
2021/10/26 04:04:38;;;;;;;24.30;14.57;;;11.20;99.90;;;;;;5067538;28;20535;-45
2021/10/26 04:07:07;;;;;;;26.17;14.77;;;11.20;99.90;;;;;;5081770;28;20490;-44
2021/10/26 04:12:24;;;;;;;20.50;14.57;;;11.10;99.90;;;;;;5073703;28;20035;-44
2021/10/26 04:14:55;;;;;;;24.52;15.60;;;11.10;99.90;;;;;;5082569;28;20525;-45
2021/10/26 04:17:24;;;;;;;;;;;11.10;99.90;;;;;;5090470;28;20016;-46
2021/10/26 04:19:50;;;;;;;25.75;16.58;;;11.10;99.90;;;;;;5083217;28;20419;-47
2021/10/26 04:22:17;;;;;;;30.13;16.83;;;11.10;99.90;;;;;;5074541;28;20127;-43
2021/10/26 04:24:44;;;;;;;26.00;16.63;;;11.10;99.90;;;;;;5070123;28;20405;-43
2021/10/26 04:27:11;;;;;;;28.35;17.10;;;11.10;99.90;;;;;;5069284;28;20547;-44
2021/10/26 04:29:38;;;;;;;25.17;16.85;;;11.10;99.90;;;;;;5070411;28;20036;-44
2021/10/26 04:32:05;;;;;;;25.10;16.67;;;11.10;99.90;;;;;;5064817;28;20256;-45
2021/10/26 04:34:31;;;;;;;29.90;16.88;;;11.10;99.90;;;;;;5073344;28;20021;-43
2021/10/26 04:36:56;;;;;;;30.85;18.48;;;11.10;99.90;;;;;;5087848;28;20470;-47
2021/10/26 04:39:22;;;;;;;28.33;18.48;;;11.10;99.90;;;;;;5077108;28;20093;-45
2021/10/26 04:41:47;;;;;;;34.28;17.90;;;11.10;99.90;;;;;;5059571;28;20064;-43
2021/10/26 04:44:13;;;;;;;32.95;20.30;;;11.10;99.90;;;;;;5060251;28;20549;-43
2021/10/26 04:46:38;;;;;;;29.83;18.70;;;11.10;99.90;;;;;;5066572;28;20108;-45
2021/10/26 04:49:04;;;;;;;32.38;18.52;;;11.10;99.90;;;;;;5062198;28;20033;-43
2021/10/26 04:51:29;;;;;;;36.15;21.17;;;11.10;99.90;;;;;;5056997;28;20056;-43
2021/10/26 04:53:55;;;;;;;34.20;20.55;;;11.10;99.90;;;;;;5057114;28;20021;-44
2021/10/26 04:56:20;;;;;;;34.38;21.30;;;11.10;99.90;;;;;;5058584;28;20051;-43
2021/10/26 04:58:45;;;;;;;33.20;20.05;;;11.00;99.90;;;;;;5048732;28;20036;-42
2021/10/26 05:01:11;;;;;;;34.95;21.92;;;11.00;99.90;;;;;;5061044;28;20573;-43
2021/10/26 05:03:36;;;;;;;30.10;21.30;;;11.00;99.90;;;;;;5072077;28;20071;-46
2021/10/26 05:06:03;;;;;;;32.30;20.33;;;11.00;99.90;;;;;;5069910;28;20035;-44
2021/10/26 05:08:30;;;;;;;38.00;21.70;;;11.00;99.90;;;;;;5065890;28;20163;-44
2021/10/26 05:10:55;;;;;;;29.65;18.17;;;11.00;99.90;;;;;;5081727;28;20527;-45
2021/10/26 05:13:21;;;;;;;36.25;20.15;;;11.00;99.90;;;;;;5090781;28;20071;-45
2021/10/26 05:15:47;;;;;;;38.00;19.50;;;11.00;99.90;;;;;;5091092;28;20035;-45
2021/10/26 05:18:13;;;;;;;31.70;20.48;;;11.00;99.90;;;;;;5070064;28;20107;-44
2021/10/26 05:20:40;;;;;;;32.55;19.45;;;11.00;99.90;;;;;;5063317;28;20017;-43
2021/10/26 05:23:07;;;;;;;31.13;19.88;;;11.00;99.90;;;;;;5057046;28;20025;-45
2021/10/26 05:25:33;;;;;;;34.80;21.27;;;11.00;99.90;;;;;;5055305;28;20505;-44
2021/10/26 05:27:58;;;;;;;31.80;20.23;;;11.00;99.90;;;;;;5064723;28;20202;-44
2021/10/26 05:30:24;;;;;;;34.70;20.80;;;11.00;99.90;;;;;;5057956;28;20044;-43
2021/10/26 05:32:50;;;;;;;34.38;22.00;;;11.00;99.90;;;;;;5063986;28;20122;-43
2021/10/26 05:35:16;;;;;;;39.97;21.30;;;11.10;99.90;;;;;;5075716;28;20031;-42
2021/10/26 05:37:41;;;;;;;40.30;21.77;;;11.00;99.90;;;;;;5073716;28;20466;-44
2021/10/26 05:40:08;;;;;;;33.38;20.27;;;11.00;99.90;;;;;;5079037;28;20031;-44
2021/10/26 05:42:34;;;;;;;32.83;20.75;;;11.10;99.90;;;;;;5063138;28;20036;-46
2021/10/26 05:45:00;;;;;;;39.13;22.15;;;11.10;99.90;;;;;;5075331;28;20477;-42
2021/10/26 05:47:27;;;;;;;36.40;21.23;;;11.00;99.90;;;;;;5074992;28;20039;-43
2021/10/26 05:49:53;;;;;;;33.58;21.77;;;11.00;99.90;;;;;;5079990;28;20033;-43
2021/10/26 05:52:18;;;;;;;39.33;23.50;;;11.00;99.90;;;;;;5083158;28;20497;-45
2021/10/26 05:54:44;;;;;;;36.92;21.67;;;11.10;99.90;;;;;;5089320;28;20035;-43
2021/10/26 05:57:09;;;;;;;35.72;22.38;;;11.10;99.90;;;;;;5073506;28;20461;-43
2021/10/26 05:59:35;;;;;;;41.03;23.13;;;11.00;99.90;;;;;;5075543;28;20025;-43
2021/10/26 06:02:00;;;;;;;41.65;23.25;;;11.00;99.90;;;;;;5078297;28;20420;-46
2021/10/26 06:04:26;;;;;;;42.05;23.25;;;11.10;99.90;;;;;;5065829;28;20054;-43
2021/10/26 06:06:51;;;;;;;37.03;25.35;;;11.10;99.90;;;;;;5066000;28;20036;-43
2021/10/26 06:09:18;;;;;;;40.42;24.20;;;11.10;99.90;;;;;;5071316;28;20039;-46
2021/10/26 06:11:47;;;;;;;44.58;24.92;;;11.10;99.90;;;;;;5064908;28;20013;-44
2021/10/26 06:14:13;;;;;;;41.05;24.05;;;11.10;99.90;;;;;;5059928;28;20025;-45
2021/10/26 06:16:39;;;;;;;44.63;24.58;;;11.10;99.90;;;;;;5077882;28;20547;-43
2021/10/26 06:19:05;;;;;;;40.63;24.05;;;11.10;99.90;;;;;;5067492;28;20433;-43
2021/10/26 06:21:31;;;;;;;36.15;22.77;;;11.10;99.90;;;;;;5070557;28;20028;-43
2021/10/26 06:23:57;;;;;;;45.33;24.98;;;11.10;99.90;;;;;;5088780;28;20024;-43
2021/10/26 06:26:23;;;;;;;41.55;24.95;;;11.20;99.90;;;;;;5088833;28;20391;-43
2021/10/26 06:28:49;;;;;;;46.42;25.88;;;11.20;99.90;;;;;;5070875;28;20025;-44
2021/10/26 06:31:15;;;;;;;40.88;24.50;;;11.20;99.90;;;;;;5063302;28;20059;-44
2021/10/26 06:33:41;;;;;;;42.13;25.02;;;11.30;99.90;;;;;;5055454;28;20069;-42
2021/10/26 06:36:06;;;;;;;43.78;23.10;;;11.30;99.90;;;;;;5080349;28;20028;-43
2021/10/26 06:38:32;;;;;;;41.22;23.55;;;11.30;99.90;;;;;;5064451;28;20119;-44
2021/10/26 06:40:57;;;;;;;43.63;22.80;;;11.30;99.90;;;;;;5070121;28;20212;-44
2021/10/26 06:43:24;;;;;;;42.53;23.23;;;11.30;99.90;;;;;;5075282;28;20313;-44
2021/10/26 06:45:50;;;;;;;42.00;23.40;;;11.30;99.90;;;;;;5059889;28;20047;-44
2021/10/26 06:48:17;;;;;;;40.42;24.52;;;11.30;99.90;;;;;;5057794;28;20507;-45
2021/10/26 06:50:42;;;;;;;42.67;24.00;;;11.30;99.90;;;;;;5058457;28;20486;-45
2021/10/26 06:53:09;;;;;;;40.20;22.20;;;11.30;99.90;;;;;;5057515;28;20063;-44
2021/10/26 06:55:35;;;;;;;39.97;22.70;;;11.40;99.90;;;;;;5061932;28;20042;-43
2021/10/26 06:58:01;;;;;;;42.08;22.90;;;11.40;99.90;;;;;;5064005;28;20029;-47
2021/10/26 07:00:27;;;;;;;41.65;22.80;;;11.40;99.90;;;;;;5048189;28;20064;-46
2021/10/26 07:02:56;;;;;;;42.17;23.60;;;11.40;99.90;;;;;;5058605;28;20401;-44
2021/10/26 07:05:24;;;;;;;42.75;24.23;;;11.40;99.90;;;;;;5067801;28;20032;-46
2021/10/26 07:07:50;;;;;;;43.08;23.95;;;11.40;99.90;;;;;;5067177;28;20031;-47
2021/10/26 07:10:16;;;;;;;41.33;22.92;;;11.40;99.90;;;;;;5055033;28;20104;-44
2021/10/26 07:12:42;;;;;;;44.38;24.17;;;11.40;99.90;;;;;;5057456;28;20170;-43
2021/10/26 07:15:09;;;;;;;38.90;24.05;;;11.40;99.90;;;;;;5068480;28;20031;-44
2021/10/26 07:17:37;;;;;;;43.28;23.13;;;11.50;99.90;;;;;;5065705;28;20034;-44
2021/10/26 07:20:08;;;;;;;41.38;23.45;;;11.60;99.90;;;;;;5060819;28;20538;-45
2021/10/26 07:22:34;;;;;;;40.63;23.30;;;11.70;99.90;;;;;;5074187;28;20028;-45
2021/10/26 07:25:06;;;;;;;37.88;22.92;;;11.80;99.90;;;;;;5050311;28;20039;-44
2021/10/26 07:27:32;;;;;;;41.75;21.70;;;11.70;99.90;;;;;;5060330;28;20584;-43
2021/10/26 07:29:59;;;;;;;39.20;21.60;;;11.70;99.90;;;;;;5067849;28;20440;-44
2021/10/26 07:32:24;;;;;;;32.92;20.17;;;11.80;99.90;;;;;;5062760;28;20028;-43
2021/10/26 07:34:50;;;;;;;33.65;20.30;;;11.80;99.90;;;;;;5070750;28;20034;-43
2021/10/26 07:37:19;;;;;;;31.67;20.90;;;11.90;99.90;;;;;;5072169;28;20054;-43
2021/10/26 07:39:47;;;;;;;30.92;20.10;;;11.90;99.90;;;;;;5067268;28;20025;-44
2021/10/26 07:42:14;;;;;;;32.85;20.10;;;11.80;99.90;;;;;;5079853;28;20490;-44
2021/10/26 07:44:39;;;;;;;35.17;19.95;;;11.80;99.90;;;;;;5087594;28;20024;-45
2021/10/26 07:47:05;;;;;;;30.17;19.33;;;11.90;99.90;;;;;;5066469;28;20021;-44
2021/10/26 07:49:32;;;;;;;31.08;19.73;;;12.00;99.90;;;;;;5062538;28;20060;-44
2021/10/26 07:51:58;;;;;;;32.78;19.88;;;12.10;99.90;;;;;;5058862;28;20046;-45
2021/10/26 07:54:24;;;;;;;44.20;20.85;;;12.20;99.90;;;;;;5051124;28;20033;-45
2021/10/26 07:56:51;;;;;;;31.23;19.52;;;12.30;99.90;;;;;;5059957;28;20521;-44
2021/10/26 07:59:16;;;;;;;33.55;18.98;;;12.30;99.90;;;;;;5051750;28;20474;-43
2021/10/26 08:01:44;;;;;;;34.33;18.73;;;12.30;99.90;;;;;;5063289;28;20082;-44
2021/10/26 08:04:11;;;;;;;29.10;18.83;;;12.30;99.90;;;;;;5054894;28;20056;-44
2021/10/26 08:06:38;;;;;;;25.88;16.88;;;12.30;99.90;;;;;;5052819;28;20026;-43
2021/10/26 08:09:03;;;;;;;31.38;17.88;;;12.30;99.90;;;;;;5054437;28;20048;-46
2021/10/26 08:11:31;;;;;;;29.13;17.98;;;12.20;99.90;;;;;;5058629;28;20021;-45
2021/10/26 08:13:57;;;;;;;26.67;17.45;;;12.20;99.90;;;;;;5058036;28;20012;-46
2021/10/26 08:16:24;;;;;;;84.38;47.40;;;12.30;99.90;;;;;;5078314;28;20243;-44
2021/10/26 08:18:49;;;;;;;29.80;18.90;;;12.40;99.90;;;;;;5068978;28;20082;-44
2021/10/26 08:21:15;;;;;;;28.23;17.58;;;12.50;99.90;;;;;;5075904;28;20029;-46
2021/10/26 08:23:42;;;;;;;30.35;17.35;;;12.70;99.90;;;;;;5072047;28;20025;-45
2021/10/26 08:26:13;;;;;;;28.67;16.83;;;12.90;99.90;;;;;;5067919;28;20017;-44
2021/10/26 08:28:39;;;;;;;26.65;16.92;;;13.10;99.90;;;;;;5062506;28;20202;-43
2021/10/26 08:31:18;;;;;;;28.80;16.90;;;13.30;99.90;;;;;;5058929;28;20083;-44
2021/10/26 08:36:18;;;;;;;27.20;16.73;;;13.40;99.90;;;;;;5064428;28;20401;-44
2021/10/26 08:38:43;;;;;;;28.60;17.08;;;13.50;99.90;;;;;;5059089;28;20024;-43
2021/10/26 08:41:11;;;;;;;21.77;14.65;;;13.60;99.90;;;;;;5065835;28;20040;-44
2021/10/26 08:43:37;;;;;;;23.30;14.77;;;13.60;99.90;;;;;;5062016;28;20071;-44
2021/10/26 08:46:08;;;;;;;25.85;15.38;;;13.60;99.90;;;;;;5059145;28;20020;-44
2021/10/26 08:48:40;;;;;;;25.08;14.93;;;13.70;99.90;;;;;;5061042;28;20378;-46
2021/10/26 08:51:05;;;;;;;24.65;14.32;;;13.80;99.90;;;;;;5054147;28;20021;-46
2021/10/26 08:53:32;;;;;;;23.25;15.32;;;13.90;99.90;;;;;;5049332;28;20024;-46
2021/10/26 08:56:00;;;;;;;19.80;13.85;;;13.90;99.90;;;;;;5056908;28;20036;-44
2021/10/26 08:58:31;;;;;;;23.30;14.23;;;14.10;99.90;;;;;;5081483;28;20148;-45
2021/10/26 09:01:00;;;;;;;19.90;14.38;;;14.00;99.90;;;;;;5085734;28;20020;-44
2021/10/26 09:03:32;;;;;;;23.90;14.30;;;14.00;99.90;;;;;;5078491;28;20028;-44
2021/10/26 09:05:57;;;;;;;22.13;14.45;;;13.90;99.90;;;;;;5066912;28;20975;-44
2021/10/26 09:08:26;;;;;;;20.13;13.60;;;14.10;99.90;;;;;;5074025;28;20366;-46
2021/10/26 09:10:52;;;;;;;23.70;14.18;;;14.20;99.90;;;;;;5089512;28;20481;-44
2021/10/26 09:19:23;;;;;;;14.88;10.70;;;16.20;99.90;;;;;;5069974;28;20090;-45
2021/10/26 09:22:15;;;;;;;12.95;10.18;;;17.80;99.90;;;;;;5080072;28;20025;-48
2021/10/26 09:25:01;;;;;;;13.50;10.25;;;18.50;99.90;;;;;;5088551;28;20051;-45
2021/10/26 09:27:28;;;;;;;18.08;10.38;;;18.90;99.90;;;;;;5080888;28;20024;-46
2021/10/26 09:29:57;;;;;;;17.50;8.98;;;19.60;96.80;;;;;;5080342;28;20024;-45
2021/10/26 09:32:31;;;;;;;14.50;9.70;;;19.50;96.90;;;;;;5075581;28;20029;-44
2021/10/26 09:35:02;;;;;;;12.90;8.77;;;19.30;96.90;;;;;;5072303;28;20021;-45
2021/10/26 09:37:45;;;;;;;15.23;10.43;;;18.60;98.20;;;;;;5085738;28;20374;-45
2021/10/26 09:40:14;;;;;;;15.95;10.00;;;18.00;98.40;;;;;;5069916;28;20040;-45
2021/10/26 09:42:43;;;;;;;15.10;11.07;;;17.50;99.90;;;;;;5070653;28;20020;-45
2021/10/26 09:45:12;;;;;;;14.43;10.80;;;16.90;99.90;;;;;;5080379;28;20031;-45
2021/10/26 09:47:40;;;;;;;19.25;11.70;;;16.80;99.90;;;;;;5062634;28;20039;-47
2021/10/26 09:50:09;;;;;;;16.40;11.68;;;16.30;99.90;;;;;;5077842;28;20517;-44
2021/10/26 09:52:44;;;;;;;16.23;11.95;;;16.50;99.90;;;;;;5059361;28;20069;-46
2021/10/26 09:55:23;;;;;;;15.55;11.73;;;16.70;99.90;;;;;;5051763;28;20248;-44
2021/10/26 09:57:51;;;;;;;14.75;11.27;;;16.60;99.90;;;;;;5072172;28;20024;-45
2021/10/26 10:00:24;;;;;;;18.17;10.63;;;17.30;99.90;;;;;;5051172;28;20497;-45
2021/10/26 10:02:57;;;;;;;16.30;10.35;;;18.20;99.90;;;;;;5067983;28;20221;-45
2021/10/26 10:05:28;;;;;;;17.27;10.57;;;18.80;99.50;;;;;;5067561;28;20047;-45
2021/10/26 10:07:54;;;;;;;19.63;10.93;;;18.90;99.00;;;;;;5069506;28;20474;-45
2021/10/26 10:10:20;;;;;;;13.77;10.50;;;18.50;98.50;;;;;;5084562;28;20032;-44
2021/10/26 10:12:59;;;;;;;18.70;9.77;;;18.80;98.50;;;;;;5070946;28;20051;-47
2021/10/26 10:15:25;;;;;;;16.58;9.93;;;18.90;98.40;;;;;;5073914;28;20032;-48
2021/10/26 10:17:50;;;;;;;14.98;10.45;;;18.70;97.90;;;;;;5069917;28;20040;-46
2021/10/26 10:20:19;;;;;;;12.05;8.85;;;18.50;97.80;;;;;;5061885;28;20378;-48
2021/10/26 10:22:47;;;;;;;15.02;8.93;;;19.30;96.50;;;;;;5080385;28;20035;-48
2021/10/26 10:25:14;;;;;;;14.63;9.10;;;19.60;95.70;;;;;;5075902;28;20526;-47
2021/10/26 10:27:43;;;;;;;13.88;9.30;;;19.50;95.60;;;;;;5075335;28;20104;-47
2021/10/26 10:30:09;;;;;;;18.58;9.52;;;19.40;95.80;;;;;;5075540;28;20032;-46
2021/10/26 10:32:36;;;;;;;14.95;9.55;;;19.60;95.50;;;;;;5071105;28;20586;-47
2021/10/26 10:35:06;;;;;;;13.02;8.57;;;19.90;94.10;;;;;;5078058;28;20382;-47
2021/10/26 10:37:32;;;;;;;;;;;19.50;94.50;;;;;;5065339;28;20037;-47
2021/10/26 10:39:59;;;;;;;16.90;11.02;;;18.70;94.80;;;;;;5056904;28;20321;-47
2021/10/26 10:42:26;;;;;;;14.52;10.38;;;18.00;96.10;;;;;;5061835;28;20028;-48
2021/10/26 10:44:58;;;;;;;18.10;9.98;;;18.00;97.60;;;;;;5072728;28;20031;-47
2021/10/26 10:47:32;;;;;;;19.55;10.50;;;18.10;98.10;;;;;;5064332;28;20055;-47
2021/10/26 10:49:58;;;;;;;11.90;8.52;;;18.90;96.30;;;;;;5071618;28;20055;-47
2021/10/26 10:52:34;;;;;;;10.20;7.88;;;19.60;95.60;;;;;;5072779;28;20033;-47
2021/10/26 10:55:20;;;;;;;11.60;8.93;;;19.40;94.80;;;;;;5069379;28;21071;-49
2021/10/26 10:57:45;;;;;;;13.63;9.15;;;19.00;94.80;;;;;;5065656;28;20067;-47
2021/10/26 11:00:28;;;;;;;11.32;8.57;;;18.20;96.10;;;;;;5073368;28;20029;-45
2021/10/26 11:02:56;;;;;;;15.00;9.95;;;17.60;97.40;;;;;;5056397;28;20456;-47
2021/10/26 11:05:35;;;;;;;12.77;9.35;;;16.80;98.70;;;;;;5071059;28;20383;-46
2021/10/26 11:08:07;;;;;;;19.48;12.50;;;16.40;99.90;;;;;;5051622;28;20021;-49
2021/10/26 11:10:51;;;;;;;17.10;12.35;;;16.10;99.90;;;;;;5050395;28;20107;-48
2021/10/26 11:13:31;;;;;;;15.60;10.52;;;15.90;99.90;;;;;;5060469;28;20158;-46
2021/10/26 11:16:03;;;;;;;25.90;12.32;;;15.80;99.90;;;;;;5072129;28;20035;-48
2021/10/26 11:18:44;;;;;;;18.83;12.38;;;15.70;99.90;;;;;;5081939;28;20041;-46
2021/10/26 11:21:30;;;;;;;17.55;11.63;;;15.50;99.90;;;;;;5068445;28;20444;-46
2021/10/26 11:23:59;;;;;;;18.33;10.05;;;15.40;99.90;;;;;;5063822;28;20020;-47
2021/10/26 11:26:53;;;;;;;16.73;10.68;;;15.20;99.90;;;;;;5055288;28;20074;-46
2021/10/26 11:29:28;;;;;;;16.75;11.25;;;15.20;99.90;;;;;;5050885;28;20033;-46
2021/10/26 11:31:54;;;;;;;17.98;11.05;;;15.90;99.90;;;;;;5057232;28;20025;-47
2021/10/26 11:34:21;;;;;;;16.20;8.35;;;16.60;99.90;;;;;;5067432;28;20451;-45
2021/10/26 11:37:04;;;;;;;10.88;8.65;;;17.20;99.90;;;;;;5059565;28;20399;-48
2021/10/26 11:39:30;;;;;;;12.32;8.85;;;17.20;99.20;;;;;;5067185;28;20115;-46
2021/10/26 11:41:59;;;;;;;10.40;8.38;;;17.80;98.30;;;;;;5068370;28;20021;-47
2021/10/26 11:44:27;;;;;;;15.93;9.05;;;18.70;97.40;;;;;;5062855;28;20496;-49
2021/10/26 11:46:53;;;;;;;13.05;8.48;;;19.30;94.60;;;;;;5064544;28;20502;-48
2021/10/26 11:49:22;;;;;;;14.57;7.18;;;20.20;93.60;;;;;;5059282;28;20042;-47
2021/10/26 11:51:55;;;;;;;10.85;7.70;;;20.60;92.30;;;;;;5089924;28;20035;-50
2021/10/26 11:54:39;;;;;;;11.00;8.18;;;20.00;92.00;;;;;;5056151;28;20017;-46
2021/10/26 11:57:07;;;;;;;12.30;7.97;;;18.90;93.50;;;;;;5050782;28;20048;-45
2021/10/26 11:59:37;;;;;;;18.13;8.68;;;18.10;93.80;;;;;;5077206;28;20107;-46
2021/10/26 12:02:06;;;;;;;13.73;8.25;;;17.30;95.80;;;;;;5071073;28;20047;-46
2021/10/26 12:04:38;;;;;;;16.95;7.72;;;16.70;96.30;;;;;;5078654;28;20044;-46
2021/10/26 12:07:12;;;;;;;11.88;8.95;;;16.40;97.30;;;;;;5075920;28;20028;-46
2021/10/26 12:09:49;;;;;;;14.82;9.18;;;16.20;98.60;;;;;;5069904;28;20098;-46
2021/10/26 12:12:20;;;;;;;13.80;8.68;;;16.80;97.80;;;;;;5064545;28;20033;-49
2021/10/26 12:14:49;;;;;;;18.88;10.02;;;16.60;97.90;;;;;;5078777;28;20537;-45
2021/10/26 12:17:22;;;;;;;12.13;8.30;;;16.30;98.70;;;;;;5081768;28;20115;-47
2021/10/26 12:20:20;;;;;;;16.17;9.98;;;16.20;98.90;;;;;;5074266;28;20031;-48
2021/10/26 12:22:48;;;;;;;16.45;10.45;;;15.90;99.60;;;;;;5090309;28;20024;-46
2021/10/26 12:25:18;;;;;;;18.15;9.82;;;15.70;99.90;;;;;;5080275;28;20028;-46
2021/10/26 12:28:05;;;;;;;14.48;9.25;;;15.50;99.90;;;;;;5061364;28;20021;-46
2021/10/26 12:30:33;;;;;;;15.20;10.43;;;15.60;99.90;;;;;;5065286;28;20078;-47
2021/10/26 12:33:06;;;;;;;20.10;11.15;;;15.60;99.90;;;;;;5073444;28;20093;-46
2021/10/26 12:35:45;;;;;;;15.35;9.98;;;15.60;99.90;;;;;;5075436;28;20020;-48
2021/10/26 12:38:29;;;;;;;18.98;11.02;;;16.40;99.90;;;;;;5070839;28;20028;-46
2021/10/26 12:41:08;;;;;;;14.05;10.02;;;16.90;99.40;;;;;;5081741;28;20051;-47
2021/10/26 12:43:35;;;;;;;16.17;9.35;;;17.20;98.70;;;;;;5071083;28;20029;-47
2021/10/26 12:46:16;;;;;;;14.55;9.02;;;17.20;97.70;;;;;;5078015;28;20124;-49